sensor_id;sensor_type;location;lat;lon;timestamp;P1;durP1;ratioP1;P2;durP2;ratioP2
7903;SDS011;3997;48.416;8.512;2023-06-22T00:01:31;10.35;;;9.45;;
7903;SDS011;3997;48.416;8.512;2023-06-22T00:03:57;10.57;;;9.48;;
7903;SDS011;3997;48.416;8.512;2023-06-22T00:06:25;10.65;;;9.75;;
7903;SDS011;3997;48.416;8.512;2023-06-22T00:08:51;12.48;;;10.45;;
7903;SDS011;3997;48.416;8.512;2023-06-22T00:11:18;10.52;;;9.50;;
7903;SDS011;3997;48.416;8.512;2023-06-22T00:13:45;10.65;;;9.60;;
7903;SDS011;3997;48.416;8.512;2023-06-22T00:16:12;11.05;;;9.95;;
7903;SDS011;3997;48.416;8.512;2023-06-22T00:18:39;11.32;;;10.35;;
7903;SDS011;3997;48.416;8.512;2023-06-22T00:21:11;11.15;;;10.15;;
7903;SDS011;3997;48.416;8.512;2023-06-22T00:23:39;10.50;;;9.60;;
7903;SDS011;3997;48.416;8.512;2023-06-22T00:26:06;10.85;;;9.80;;
7903;SDS011;3997;48.416;8.512;2023-06-22T00:28:33;10.73;;;9.85;;
7903;SDS011;3997;48.416;8.512;2023-06-22T00:30:59;11.48;;;10.48;;
7903;SDS011;3997;48.416;8.512;2023-06-22T00:33:26;11.50;;;10.57;;
7903;SDS011;3997;48.416;8.512;2023-06-22T00:35:53;11.15;;;10.25;;
7903;SDS011;3997;48.416;8.512;2023-06-22T00:38:19;11.88;;;10.80;;
7903;SDS011;3997;48.416;8.512;2023-06-22T00:40:47;11.27;;;10.27;;
7903;SDS011;3997;48.416;8.512;2023-06-22T00:43:14;11.98;;;10.77;;
7903;SDS011;3997;48.416;8.512;2023-06-22T00:45:40;11.27;;;10.38;;
7903;SDS011;3997;48.416;8.512;2023-06-22T00:48:07;11.88;;;10.77;;
7903;SDS011;3997;48.416;8.512;2023-06-22T00:50:34;11.07;;;10.02;;
7903;SDS011;3997;48.416;8.512;2023-06-22T00:53:01;10.38;;;9.57;;
7903;SDS011;3997;48.416;8.512;2023-06-22T00:55:33;11.70;;;10.43;;
7903;SDS011;3997;48.416;8.512;2023-06-22T00:58:02;10.52;;;9.52;;
7903;SDS011;3997;48.416;8.512;2023-06-22T01:00:30;10.68;;;9.77;;
7903;SDS011;3997;48.416;8.512;2023-06-22T01:02:57;9.63;;;8.82;;
7903;SDS011;3997;48.416;8.512;2023-06-22T01:05:24;11.90;;;10.82;;
7903;SDS011;3997;48.416;8.512;2023-06-22T01:07:59;12.18;;;10.82;;
7903;SDS011;3997;48.416;8.512;2023-06-22T01:10:28;11.32;;;10.23;;
7903;SDS011;3997;48.416;8.512;2023-06-22T01:12:58;10.88;;;9.80;;
7903;SDS011;3997;48.416;8.512;2023-06-22T01:15:29;10.93;;;9.93;;
7903;SDS011;3997;48.416;8.512;2023-06-22T01:17:57;11.40;;;10.40;;
7903;SDS011;3997;48.416;8.512;2023-06-22T01:20:24;12.23;;;11.13;;
7903;SDS011;3997;48.416;8.512;2023-06-22T01:22:57;11.40;;;10.30;;
7903;SDS011;3997;48.416;8.512;2023-06-22T01:25:26;10.98;;;9.95;;
7903;SDS011;3997;48.416;8.512;2023-06-22T01:27:56;12.10;;;10.90;;
7903;SDS011;3997;48.416;8.512;2023-06-22T01:30:27;11.52;;;10.43;;
7903;SDS011;3997;48.416;8.512;2023-06-22T01:32:54;10.73;;;9.82;;
7903;SDS011;3997;48.416;8.512;2023-06-22T01:35:21;10.77;;;9.88;;
7903;SDS011;3997;48.416;8.512;2023-06-22T01:37:48;12.15;;;10.85;;
7903;SDS011;3997;48.416;8.512;2023-06-22T01:40:15;10.70;;;9.80;;
7903;SDS011;3997;48.416;8.512;2023-06-22T01:42:42;10.80;;;9.90;;
7903;SDS011;3997;48.416;8.512;2023-06-22T01:45:09;11.07;;;10.00;;
7903;SDS011;3997;48.416;8.512;2023-06-22T01:47:37;10.75;;;9.65;;
7903;SDS011;3997;48.416;8.512;2023-06-22T01:50:05;11.95;;;10.85;;
7903;SDS011;3997;48.416;8.512;2023-06-22T01:52:32;10.90;;;9.95;;
7903;SDS011;3997;48.416;8.512;2023-06-22T01:54:59;11.98;;;9.88;;
7903;SDS011;3997;48.416;8.512;2023-06-22T01:57:25;11.40;;;10.20;;
7903;SDS011;3997;48.416;8.512;2023-06-22T01:59:53;13.13;;;9.85;;
7903;SDS011;3997;48.416;8.512;2023-06-22T02:02:22;12.05;;;10.88;;
7903;SDS011;3997;48.416;8.512;2023-06-22T02:04:56;12.93;;;10.27;;
7903;SDS011;3997;48.416;8.512;2023-06-22T02:07:23;11.27;;;10.18;;
7903;SDS011;3997;48.416;8.512;2023-06-22T02:09:51;11.05;;;9.25;;
7903;SDS011;3997;48.416;8.512;2023-06-22T02:12:21;10.98;;;10.07;;
7903;SDS011;3997;48.416;8.512;2023-06-22T02:14:48;11.40;;;10.38;;
7903;SDS011;3997;48.416;8.512;2023-06-22T02:17:16;11.02;;;10.02;;
7903;SDS011;3997;48.416;8.512;2023-06-22T02:19:43;11.48;;;10.32;;
7903;SDS011;3997;48.416;8.512;2023-06-22T02:22:10;10.75;;;9.70;;
7903;SDS011;3997;48.416;8.512;2023-06-22T02:24:37;10.57;;;9.45;;
7903;SDS011;3997;48.416;8.512;2023-06-22T02:27:04;11.93;;;9.75;;
7903;SDS011;3997;48.416;8.512;2023-06-22T02:29:32;11.02;;;9.85;;
7903;SDS011;3997;48.416;8.512;2023-06-22T02:31:58;10.38;;;9.38;;
7903;SDS011;3997;48.416;8.512;2023-06-22T02:34:25;10.40;;;9.30;;
7903;SDS011;3997;48.416;8.512;2023-06-22T02:36:51;9.95;;;9.10;;
7903;SDS011;3997;48.416;8.512;2023-06-22T02:39:23;10.32;;;9.32;;
7903;SDS011;3997;48.416;8.512;2023-06-22T02:41:49;10.93;;;9.82;;
7903;SDS011;3997;48.416;8.512;2023-06-22T02:44:16;11.18;;;9.85;;
7903;SDS011;3997;48.416;8.512;2023-06-22T02:46:42;10.60;;;9.60;;
7903;SDS011;3997;48.416;8.512;2023-06-22T02:49:09;11.52;;;10.02;;
7903;SDS011;3997;48.416;8.512;2023-06-22T02:51:38;11.05;;;9.98;;
7903;SDS011;3997;48.416;8.512;2023-06-22T02:54:04;11.40;;;10.40;;
7903;SDS011;3997;48.416;8.512;2023-06-22T02:56:32;11.88;;;10.68;;
7903;SDS011;3997;48.416;8.512;2023-06-22T02:58:59;11.63;;;10.23;;
7903;SDS011;3997;48.416;8.512;2023-06-22T03:01:26;11.77;;;9.48;;
7903;SDS011;3997;48.416;8.512;2023-06-22T03:03:52;11.60;;;10.63;;
7903;SDS011;3997;48.416;8.512;2023-06-22T03:06:19;11.32;;;10.23;;
7903;SDS011;3997;48.416;8.512;2023-06-22T03:08:48;12.20;;;10.90;;
7903;SDS011;3997;48.416;8.512;2023-06-22T03:11:14;11.82;;;10.82;;
7903;SDS011;3997;48.416;8.512;2023-06-22T03:13:42;11.50;;;10.50;;
7903;SDS011;3997;48.416;8.512;2023-06-22T03:16:09;10.98;;;9.95;;
7903;SDS011;3997;48.416;8.512;2023-06-22T03:18:35;11.90;;;10.77;;
7903;SDS011;3997;48.416;8.512;2023-06-22T03:21:01;12.20;;;11.00;;
7903;SDS011;3997;48.416;8.512;2023-06-22T03:23:28;13.20;;;11.30;;
7903;SDS011;3997;48.416;8.512;2023-06-22T03:25:54;11.55;;;10.48;;
7903;SDS011;3997;48.416;8.512;2023-06-22T03:28:21;11.55;;;10.57;;
7903;SDS011;3997;48.416;8.512;2023-06-22T03:30:49;10.88;;;9.88;;
7903;SDS011;3997;48.416;8.512;2023-06-22T03:33:16;11.15;;;10.05;;
7903;SDS011;3997;48.416;8.512;2023-06-22T03:35:42;10.45;;;9.50;;
7903;SDS011;3997;48.416;8.512;2023-06-22T03:38:09;11.15;;;10.20;;
7903;SDS011;3997;48.416;8.512;2023-06-22T03:40:35;11.55;;;10.40;;
7903;SDS011;3997;48.416;8.512;2023-06-22T03:43:01;11.52;;;10.50;;
7903;SDS011;3997;48.416;8.512;2023-06-22T03:45:28;11.40;;;10.30;;
7903;SDS011;3997;48.416;8.512;2023-06-22T03:47:56;10.40;;;9.50;;
7903;SDS011;3997;48.416;8.512;2023-06-22T03:50:22;10.07;;;9.15;;
7903;SDS011;3997;48.416;8.512;2023-06-22T03:52:49;11.00;;;10.00;;
7903;SDS011;3997;48.416;8.512;2023-06-22T03:55:16;11.90;;;10.55;;
7903;SDS011;3997;48.416;8.512;2023-06-22T03:57:43;11.50;;;10.50;;
7903;SDS011;3997;48.416;8.512;2023-06-22T04:00:09;11.07;;;10.15;;
7903;SDS011;3997;48.416;8.512;2023-06-22T04:02:36;10.98;;;10.00;;
7903;SDS011;3997;48.416;8.512;2023-06-22T04:05:04;11.18;;;10.10;;
7903;SDS011;3997;48.416;8.512;2023-06-22T04:07:31;11.60;;;10.15;;
7903;SDS011;3997;48.416;8.512;2023-06-22T04:09:57;10.43;;;9.43;;
7903;SDS011;3997;48.416;8.512;2023-06-22T04:12:24;10.80;;;9.80;;
7903;SDS011;3997;48.416;8.512;2023-06-22T04:14:50;11.13;;;9.95;;
7903;SDS011;3997;48.416;8.512;2023-06-22T04:17:16;10.93;;;9.88;;
7903;SDS011;3997;48.416;8.512;2023-06-22T04:19:44;10.95;;;9.95;;
7903;SDS011;3997;48.416;8.512;2023-06-22T04:22:12;10.38;;;9.38;;
7903;SDS011;3997;48.416;8.512;2023-06-22T04:24:38;11.05;;;9.98;;
7903;SDS011;3997;48.416;8.512;2023-06-22T04:27:05;10.80;;;9.80;;
7903;SDS011;3997;48.416;8.512;2023-06-22T04:29:31;11.25;;;9.77;;
7903;SDS011;3997;48.416;8.512;2023-06-22T04:31:58;9.73;;;9.02;;
7903;SDS011;3997;48.416;8.512;2023-06-22T04:34:28;11.05;;;9.93;;
7903;SDS011;3997;48.416;8.512;2023-06-22T04:36:54;10.35;;;9.25;;
7903;SDS011;3997;48.416;8.512;2023-06-22T04:39:22;9.55;;;8.75;;
7903;SDS011;3997;48.416;8.512;2023-06-22T04:41:49;10.77;;;9.70;;
7903;SDS011;3997;48.416;8.512;2023-06-22T04:44:16;10.90;;;9.48;;
7903;SDS011;3997;48.416;8.512;2023-06-22T04:46:48;10.20;;;9.20;;
7903;SDS011;3997;48.416;8.512;2023-06-22T04:49:19;10.02;;;9.15;;
7903;SDS011;3997;48.416;8.512;2023-06-22T04:51:45;9.65;;;8.85;;
7903;SDS011;3997;48.416;8.512;2023-06-22T04:54:12;9.85;;;9.05;;
7903;SDS011;3997;48.416;8.512;2023-06-22T04:56:39;9.35;;;8.38;;
7903;SDS011;3997;48.416;8.512;2023-06-22T04:59:06;10.85;;;9.73;;
7903;SDS011;3997;48.416;8.512;2023-06-22T05:01:33;10.43;;;9.15;;
7903;SDS011;3997;48.416;8.512;2023-06-22T05:04:00;11.02;;;10.02;;
7903;SDS011;3997;48.416;8.512;2023-06-22T05:06:28;10.93;;;9.70;;
7903;SDS011;3997;48.416;8.512;2023-06-22T05:08:54;10.15;;;8.95;;
7903;SDS011;3997;48.416;8.512;2023-06-22T05:11:22;9.45;;;8.48;;
7903;SDS011;3997;48.416;8.512;2023-06-22T05:13:50;9.77;;;8.77;;
7903;SDS011;3997;48.416;8.512;2023-06-22T05:16:17;9.23;;;8.32;;
7903;SDS011;3997;48.416;8.512;2023-06-22T05:18:49;10.32;;;9.30;;
7903;SDS011;3997;48.416;8.512;2023-06-22T05:21:17;9.60;;;8.80;;
7903;SDS011;3997;48.416;8.512;2023-06-22T05:23:44;9.90;;;9.05;;
7903;SDS011;3997;48.416;8.512;2023-06-22T05:26:10;9.55;;;8.75;;
7903;SDS011;3997;48.416;8.512;2023-06-22T05:28:37;10.57;;;9.68;;
7903;SDS011;3997;48.416;8.512;2023-06-22T05:31:04;9.63;;;8.70;;
7903;SDS011;3997;48.416;8.512;2023-06-22T05:33:31;9.50;;;8.70;;
7903;SDS011;3997;48.416;8.512;2023-06-22T05:35:58;9.77;;;8.77;;
7903;SDS011;3997;48.416;8.512;2023-06-22T05:38:24;9.65;;;8.65;;
7903;SDS011;3997;48.416;8.512;2023-06-22T05:40:51;11.25;;;9.43;;
7903;SDS011;3997;48.416;8.512;2023-06-22T05:43:17;9.50;;;8.52;;
7903;SDS011;3997;48.416;8.512;2023-06-22T05:45:44;9.70;;;8.75;;
7903;SDS011;3997;48.416;8.512;2023-06-22T05:48:12;9.25;;;8.43;;
7903;SDS011;3997;48.416;8.512;2023-06-22T05:50:38;10.55;;;9.55;;
7903;SDS011;3997;48.416;8.512;2023-06-22T05:53:05;9.77;;;8.88;;
7903;SDS011;3997;48.416;8.512;2023-06-22T05:55:32;8.80;;;8.10;;
7903;SDS011;3997;48.416;8.512;2023-06-22T05:57:58;8.38;;;7.55;;
7903;SDS011;3997;48.416;8.512;2023-06-22T06:00:25;8.48;;;7.72;;
7903;SDS011;3997;48.416;8.512;2023-06-22T06:02:51;9.73;;;8.82;;
7903;SDS011;3997;48.416;8.512;2023-06-22T06:05:19;8.57;;;7.68;;
7903;SDS011;3997;48.416;8.512;2023-06-22T06:07:46;8.50;;;7.80;;
7903;SDS011;3997;48.416;8.512;2023-06-22T06:10:12;8.18;;;7.57;;
7903;SDS011;3997;48.416;8.512;2023-06-22T06:12:39;9.77;;;8.77;;
7903;SDS011;3997;48.416;8.512;2023-06-22T06:15:06;10.57;;;8.50;;
7903;SDS011;3997;48.416;8.512;2023-06-22T06:17:33;8.40;;;7.38;;
7903;SDS011;3997;48.416;8.512;2023-06-22T06:19:59;8.13;;;7.15;;
7903;SDS011;3997;48.416;8.512;2023-06-22T06:22:31;8.00;;;7.18;;
7903;SDS011;3997;48.416;8.512;2023-06-22T06:24:57;8.77;;;7.57;;
7903;SDS011;3997;48.416;8.512;2023-06-22T06:27:24;8.57;;;7.05;;
7903;SDS011;3997;48.416;8.512;2023-06-22T06:29:54;8.48;;;7.20;;
7903;SDS011;3997;48.416;8.512;2023-06-22T06:32:28;8.90;;;6.93;;
7903;SDS011;3997;48.416;8.512;2023-06-22T06:34:56;8.02;;;7.28;;
7903;SDS011;3997;48.416;8.512;2023-06-22T06:37:23;9.23;;;6.80;;
7903;SDS011;3997;48.416;8.512;2023-06-22T06:39:50;8.48;;;7.53;;
7903;SDS011;3997;48.416;8.512;2023-06-22T06:42:17;7.10;;;6.50;;
7903;SDS011;3997;48.416;8.512;2023-06-22T06:44:44;7.22;;;6.53;;
7903;SDS011;3997;48.416;8.512;2023-06-22T06:47:10;8.48;;;7.63;;
7903;SDS011;3997;48.416;8.512;2023-06-22T06:49:37;7.45;;;6.75;;
7903;SDS011;3997;48.416;8.512;2023-06-22T06:52:04;6.65;;;6.05;;
7903;SDS011;3997;48.416;8.512;2023-06-22T06:54:30;6.97;;;6.38;;
7903;SDS011;3997;48.416;8.512;2023-06-22T06:56:58;7.50;;;6.75;;
7903;SDS011;3997;48.416;8.512;2023-06-22T06:59:25;8.00;;;7.20;;
7903;SDS011;3997;48.416;8.512;2023-06-22T07:01:51;7.25;;;6.13;;
7903;SDS011;3997;48.416;8.512;2023-06-22T07:04:17;8.85;;;6.82;;
7903;SDS011;3997;48.416;8.512;2023-06-22T07:06:44;6.65;;;6.05;;
7903;SDS011;3997;48.416;8.512;2023-06-22T07:09:10;7.13;;;6.35;;
7903;SDS011;3997;48.416;8.512;2023-06-22T07:11:37;8.50;;;6.90;;
7903;SDS011;3997;48.416;8.512;2023-06-22T07:14:05;7.60;;;6.10;;
7903;SDS011;3997;48.416;8.512;2023-06-22T07:16:31;6.82;;;6.18;;
7903;SDS011;3997;48.416;8.512;2023-06-22T07:18:58;7.53;;;6.30;;
7903;SDS011;3997;48.416;8.512;2023-06-22T07:21:24;7.55;;;6.60;;
7903;SDS011;3997;48.416;8.512;2023-06-22T07:23:50;8.45;;;7.13;;
7903;SDS011;3997;48.416;8.512;2023-06-22T07:26:17;9.48;;;6.57;;
7903;SDS011;3997;48.416;8.512;2023-06-22T07:28:44;6.57;;;5.97;;
7903;SDS011;3997;48.416;8.512;2023-06-22T07:31:11;8.50;;;6.80;;
7903;SDS011;3997;48.416;8.512;2023-06-22T07:33:38;8.15;;;7.40;;
7903;SDS011;3997;48.416;8.512;2023-06-22T07:36:04;8.82;;;7.18;;
7903;SDS011;3997;48.416;8.512;2023-06-22T07:38:33;7.72;;;6.75;;
7903;SDS011;3997;48.416;8.512;2023-06-22T07:40:59;7.95;;;7.25;;
7903;SDS011;3997;48.416;8.512;2023-06-22T07:43:25;6.90;;;6.32;;
7903;SDS011;3997;48.416;8.512;2023-06-22T07:45:52;9.00;;;6.65;;
7903;SDS011;3997;48.416;8.512;2023-06-22T07:48:21;7.15;;;6.43;;
7903;SDS011;3997;48.416;8.512;2023-06-22T07:50:47;7.35;;;6.60;;
7903;SDS011;3997;48.416;8.512;2023-06-22T07:53:14;7.68;;;6.85;;
7903;SDS011;3997;48.416;8.512;2023-06-22T07:55:40;7.25;;;6.55;;
7903;SDS011;3997;48.416;8.512;2023-06-22T07:58:07;7.18;;;6.47;;
7903;SDS011;3997;48.416;8.512;2023-06-22T08:00:33;9.00;;;7.45;;
7903;SDS011;3997;48.416;8.512;2023-06-22T08:03:00;6.80;;;6.20;;
7903;SDS011;3997;48.416;8.512;2023-06-22T08:05:31;7.90;;;6.50;;
7903;SDS011;3997;48.416;8.512;2023-06-22T08:07:58;6.93;;;6.43;;
7903;SDS011;3997;48.416;8.512;2023-06-22T08:10:24;8.02;;;7.32;;
7903;SDS011;3997;48.416;8.512;2023-06-22T08:12:50;6.90;;;6.20;;
7903;SDS011;3997;48.416;8.512;2023-06-22T08:15:18;7.75;;;6.95;;
7903;SDS011;3997;48.416;8.512;2023-06-22T08:17:44;8.05;;;7.20;;
7903;SDS011;3997;48.416;8.512;2023-06-22T08:20:11;7.30;;;6.63;;
7903;SDS011;3997;48.416;8.512;2023-06-22T08:22:39;7.78;;;7.07;;
7903;SDS011;3997;48.416;8.512;2023-06-22T08:25:06;6.93;;;6.35;;
7903;SDS011;3997;48.416;8.512;2023-06-22T08:27:33;8.00;;;7.20;;
7903;SDS011;3997;48.416;8.512;2023-06-22T08:30:00;7.13;;;6.50;;
7903;SDS011;3997;48.416;8.512;2023-06-22T08:32:27;7.43;;;6.82;;
7903;SDS011;3997;48.416;8.512;2023-06-22T08:34:53;7.75;;;7.05;;
7903;SDS011;3997;48.416;8.512;2023-06-22T08:37:20;7.38;;;6.60;;
7903;SDS011;3997;48.416;8.512;2023-06-22T08:39:50;9.57;;;6.78;;
7903;SDS011;3997;48.416;8.512;2023-06-22T08:42:16;7.07;;;6.43;;
7903;SDS011;3997;48.416;8.512;2023-06-22T08:44:43;10.32;;;7.10;;
7903;SDS011;3997;48.416;8.512;2023-06-22T08:47:09;7.07;;;6.43;;
7903;SDS011;3997;48.416;8.512;2023-06-22T08:49:35;7.15;;;6.45;;
7903;SDS011;3997;48.416;8.512;2023-06-22T08:52:02;6.57;;;5.97;;
7903;SDS011;3997;48.416;8.512;2023-06-22T08:54:28;7.03;;;6.43;;
7903;SDS011;3997;48.416;8.512;2023-06-22T08:57:01;7.38;;;6.68;;
7903;SDS011;3997;48.416;8.512;2023-06-22T08:59:28;7.43;;;6.60;;
7903;SDS011;3997;48.416;8.512;2023-06-22T09:01:54;7.05;;;6.45;;
7903;SDS011;3997;48.416;8.512;2023-06-22T09:04:21;7.20;;;6.50;;
7903;SDS011;3997;48.416;8.512;2023-06-22T09:06:48;6.78;;;6.10;;
7903;SDS011;3997;48.416;8.512;2023-06-22T09:09:15;9.20;;;6.57;;
7903;SDS011;3997;48.416;8.512;2023-06-22T09:11:42;6.90;;;6.28;;
7903;SDS011;3997;48.416;8.512;2023-06-22T09:14:10;6.93;;;6.32;;
7903;SDS011;3997;48.416;8.512;2023-06-22T09:16:36;6.93;;;6.32;;
7903;SDS011;3997;48.416;8.512;2023-06-22T09:19:03;6.75;;;6.25;;
7903;SDS011;3997;48.416;8.512;2023-06-22T09:21:29;8.45;;;6.38;;
7903;SDS011;3997;48.416;8.512;2023-06-22T09:23:56;6.53;;;5.90;;
7903;SDS011;3997;48.416;8.512;2023-06-22T09:26:22;8.52;;;6.50;;
7903;SDS011;3997;48.416;8.512;2023-06-22T09:28:50;6.07;;;5.60;;
7903;SDS011;3997;48.416;8.512;2023-06-22T09:31:17;6.88;;;5.97;;
7903;SDS011;3997;48.416;8.512;2023-06-22T09:33:50;6.70;;;6.20;;
7903;SDS011;3997;48.416;8.512;2023-06-22T09:36:16;7.85;;;6.55;;
7903;SDS011;3997;48.416;8.512;2023-06-22T09:38:43;6.80;;;6.18;;
7903;SDS011;3997;48.416;8.512;2023-06-22T09:41:09;6.90;;;6.20;;
7903;SDS011;3997;48.416;8.512;2023-06-22T09:43:36;6.35;;;5.85;;
7903;SDS011;3997;48.416;8.512;2023-06-22T09:46:02;7.55;;;6.85;;
7903;SDS011;3997;48.416;8.512;2023-06-22T09:48:30;7.65;;;6.97;;
7903;SDS011;3997;48.416;8.512;2023-06-22T09:50:56;7.57;;;6.32;;
7903;SDS011;3997;48.416;8.512;2023-06-22T09:53:23;7.65;;;6.82;;
7903;SDS011;3997;48.416;8.512;2023-06-22T09:55:49;8.00;;;7.15;;
7903;SDS011;3997;48.416;8.512;2023-06-22T09:58:16;7.97;;;7.18;;
7903;SDS011;3997;48.416;8.512;2023-06-22T10:00:42;7.25;;;6.65;;
7903;SDS011;3997;48.416;8.512;2023-06-22T10:03:09;7.65;;;6.95;;
7903;SDS011;3997;48.416;8.512;2023-06-22T10:05:36;7.55;;;6.18;;
7903;SDS011;3997;48.416;8.512;2023-06-22T10:08:03;7.05;;;6.45;;
7903;SDS011;3997;48.416;8.512;2023-06-22T10:10:30;7.53;;;6.07;;
7903;SDS011;3997;48.416;8.512;2023-06-22T10:12:57;7.10;;;6.47;;
7903;SDS011;3997;48.416;8.512;2023-06-22T10:15:23;7.25;;;6.18;;
7903;SDS011;3997;48.416;8.512;2023-06-22T10:17:52;7.57;;;6.88;;
7903;SDS011;3997;48.416;8.512;2023-06-22T10:20:18;7.13;;;6.40;;
7903;SDS011;3997;48.416;8.512;2023-06-22T10:22:47;6.68;;;5.97;;
7903;SDS011;3997;48.416;8.512;2023-06-22T10:25:13;7.18;;;6.50;;
7903;SDS011;3997;48.416;8.512;2023-06-22T10:27:40;7.05;;;6.32;;
7903;SDS011;3997;48.416;8.512;2023-06-22T10:30:07;6.30;;;5.70;;
7903;SDS011;3997;48.416;8.512;2023-06-22T10:32:34;6.20;;;5.60;;
7903;SDS011;3997;48.416;8.512;2023-06-22T10:35:01;8.10;;;6.53;;
7903;SDS011;3997;48.416;8.512;2023-06-22T10:37:28;8.13;;;6.82;;
7903;SDS011;3997;48.416;8.512;2023-06-22T10:39:56;8.18;;;6.40;;
7903;SDS011;3997;48.416;8.512;2023-06-22T10:42:22;6.72;;;6.13;;
7903;SDS011;3997;48.416;8.512;2023-06-22T10:44:49;8.43;;;6.90;;
7903;SDS011;3997;48.416;8.512;2023-06-22T10:47:15;9.07;;;6.50;;
7903;SDS011;3997;48.416;8.512;2023-06-22T10:49:42;7.18;;;6.35;;
7903;SDS011;3997;48.416;8.512;2023-06-22T10:52:08;6.68;;;6.10;;
7903;SDS011;3997;48.416;8.512;2023-06-22T10:54:35;7.97;;;6.03;;
7903;SDS011;3997;48.416;8.512;2023-06-22T10:57:04;8.27;;;6.25;;
7903;SDS011;3997;48.416;8.512;2023-06-22T10:59:30;6.38;;;5.88;;
7903;SDS011;3997;48.416;8.512;2023-06-22T11:01:57;7.60;;;6.28;;
7903;SDS011;3997;48.416;8.512;2023-06-22T11:04:24;7.10;;;6.40;;
7903;SDS011;3997;48.416;8.512;2023-06-22T11:06:51;6.72;;;6.00;;
7903;SDS011;3997;48.416;8.512;2023-06-22T11:09:17;8.75;;;6.45;;
7903;SDS011;3997;48.416;8.512;2023-06-22T11:11:46;10.07;;;6.18;;
7903;SDS011;3997;48.416;8.512;2023-06-22T11:14:14;9.52;;;6.72;;
7903;SDS011;3997;48.416;8.512;2023-06-22T11:16:40;7.68;;;6.32;;
7903;SDS011;3997;48.416;8.512;2023-06-22T11:19:06;6.97;;;6.20;;
7903;SDS011;3997;48.416;8.512;2023-06-22T11:21:33;6.88;;;6.28;;
7903;SDS011;3997;48.416;8.512;2023-06-22T11:23:59;6.90;;;6.30;;
7903;SDS011;3997;48.416;8.512;2023-06-22T11:26:26;6.95;;;6.28;;
7903;SDS011;3997;48.416;8.512;2023-06-22T11:28:52;7.07;;;6.38;;
7903;SDS011;3997;48.416;8.512;2023-06-22T11:31:20;7.35;;;6.65;;
7903;SDS011;3997;48.416;8.512;2023-06-22T11:33:47;8.30;;;6.82;;
7903;SDS011;3997;48.416;8.512;2023-06-22T11:36:13;7.53;;;6.82;;
7903;SDS011;3997;48.416;8.512;2023-06-22T11:38:40;7.22;;;6.63;;
7903;SDS011;3997;48.416;8.512;2023-06-22T11:41:07;7.97;;;7.07;;
7903;SDS011;3997;48.416;8.512;2023-06-22T11:43:33;10.25;;;6.88;;
7903;SDS011;3997;48.416;8.512;2023-06-22T11:46:01;7.55;;;6.68;;
7903;SDS011;3997;48.416;8.512;2023-06-22T11:48:29;9.90;;;7.40;;
7903;SDS011;3997;48.416;8.512;2023-06-22T11:50:55;7.60;;;6.90;;
7903;SDS011;3997;48.416;8.512;2023-06-22T11:53:23;8.30;;;7.43;;
7903;SDS011;3997;48.416;8.512;2023-06-22T11:55:50;7.95;;;7.18;;
7903;SDS011;3997;48.416;8.512;2023-06-22T11:58:17;8.93;;;7.45;;
7903;SDS011;3997;48.416;8.512;2023-06-22T12:00:44;8.15;;;7.30;;
7903;SDS011;3997;48.416;8.512;2023-06-22T12:03:11;9.23;;;7.95;;
7903;SDS011;3997;48.416;8.512;2023-06-22T12:05:39;9.90;;;8.10;;
7903;SDS011;3997;48.416;8.512;2023-06-22T12:08:05;9.23;;;8.30;;
7903;SDS011;3997;48.416;8.512;2023-06-22T12:10:31;9.32;;;8.23;;
7903;SDS011;3997;48.416;8.512;2023-06-22T12:12:58;8.95;;;8.05;;
7903;SDS011;3997;48.416;8.512;2023-06-22T12:15:25;9.18;;;8.30;;
7903;SDS011;3997;48.416;8.512;2023-06-22T12:17:51;8.43;;;7.50;;
7903;SDS011;3997;48.416;8.512;2023-06-22T12:20:18;10.07;;;8.35;;
7903;SDS011;3997;48.416;8.512;2023-06-22T12:22:46;8.32;;;7.45;;
7903;SDS011;3997;48.416;8.512;2023-06-22T12:25:16;10.07;;;7.53;;
7903;SDS011;3997;48.416;8.512;2023-06-22T12:27:42;9.13;;;7.60;;
7903;SDS011;3997;48.416;8.512;2023-06-22T12:30:09;9.00;;;7.85;;
7903;SDS011;3997;48.416;8.512;2023-06-22T12:32:36;11.77;;;7.97;;
7903;SDS011;3997;48.416;8.512;2023-06-22T12:35:02;9.20;;;7.40;;
7903;SDS011;3997;48.416;8.512;2023-06-22T12:37:29;8.90;;;8.00;;
7903;SDS011;3997;48.416;8.512;2023-06-22T12:39:58;9.57;;;7.65;;
7903;SDS011;3997;48.416;8.512;2023-06-22T12:42:24;9.50;;;7.82;;
7903;SDS011;3997;48.416;8.512;2023-06-22T12:44:51;8.80;;;7.95;;
7903;SDS011;3997;48.416;8.512;2023-06-22T12:47:18;8.57;;;7.88;;
7903;SDS011;3997;48.416;8.512;2023-06-22T12:49:45;8.90;;;6.57;;
7903;SDS011;3997;48.416;8.512;2023-06-22T12:52:11;7.47;;;6.53;;
7903;SDS011;3997;48.416;8.512;2023-06-22T12:54:38;6.68;;;6.18;;
7903;SDS011;3997;48.416;8.512;2023-06-22T12:57:06;8.10;;;6.30;;
7903;SDS011;3997;48.416;8.512;2023-06-22T12:59:32;10.23;;;6.47;;
7903;SDS011;3997;48.416;8.512;2023-06-22T13:01:59;8.10;;;6.95;;
7903;SDS011;3997;48.416;8.512;2023-06-22T13:04:25;7.20;;;6.32;;
7903;SDS011;3997;48.416;8.512;2023-06-22T13:06:52;7.43;;;6.10;;
7903;SDS011;3997;48.416;8.512;2023-06-22T13:09:19;8.32;;;6.47;;
7903;SDS011;3997;48.416;8.512;2023-06-22T13:11:45;10.35;;;7.15;;
7903;SDS011;3997;48.416;8.512;2023-06-22T13:14:13;7.28;;;6.20;;
7903;SDS011;3997;48.416;8.512;2023-06-22T13:16:41;10.05;;;6.20;;
7903;SDS011;3997;48.416;8.512;2023-06-22T13:19:07;10.23;;;6.60;;
7903;SDS011;3997;48.416;8.512;2023-06-22T13:21:34;10.65;;;6.13;;
7903;SDS011;3997;48.416;8.512;2023-06-22T13:24:00;8.02;;;6.63;;
7903;SDS011;3997;48.416;8.512;2023-06-22T13:26:27;8.75;;;6.13;;
7903;SDS011;3997;48.416;8.512;2023-06-22T13:28:55;9.55;;;6.10;;
7903;SDS011;3997;48.416;8.512;2023-06-22T13:31:23;7.10;;;6.22;;
7903;SDS011;3997;48.416;8.512;2023-06-22T13:33:50;6.70;;;5.72;;
7903;SDS011;3997;48.416;8.512;2023-06-22T13:36:17;6.07;;;5.47;;
7903;SDS011;3997;48.416;8.512;2023-06-22T13:38:44;6.50;;;5.90;;
7903;SDS011;3997;48.416;8.512;2023-06-22T13:41:11;6.63;;;5.50;;
7903;SDS011;3997;48.416;8.512;2023-06-22T13:43:37;7.47;;;5.93;;
7903;SDS011;3997;48.416;8.512;2023-06-22T13:46:04;11.30;;;5.90;;
7903;SDS011;3997;48.416;8.512;2023-06-22T13:48:32;8.43;;;5.80;;
7903;SDS011;3997;48.416;8.512;2023-06-22T13:50:58;9.40;;;5.80;;
7903;SDS011;3997;48.416;8.512;2023-06-22T13:53:25;7.63;;;6.10;;
7903;SDS011;3997;48.416;8.512;2023-06-22T13:55:51;9.32;;;5.88;;
7903;SDS011;3997;48.416;8.512;2023-06-22T13:58:18;7.60;;;5.95;;
7903;SDS011;3997;48.416;8.512;2023-06-22T14:00:45;9.52;;;6.38;;
7903;SDS011;3997;48.416;8.512;2023-06-22T14:03:11;13.23;;;7.18;;
7903;SDS011;3997;48.416;8.512;2023-06-22T14:05:42;8.25;;;6.20;;
7903;SDS011;3997;48.416;8.512;2023-06-22T14:08:08;8.45;;;6.00;;
7903;SDS011;3997;48.416;8.512;2023-06-22T14:10:35;8.07;;;6.78;;
7903;SDS011;3997;48.416;8.512;2023-06-22T14:13:01;7.10;;;6.35;;
7903;SDS011;3997;48.416;8.512;2023-06-22T14:15:30;7.72;;;6.90;;
7903;SDS011;3997;48.416;8.512;2023-06-22T14:17:57;10.05;;;6.32;;
7903;SDS011;3997;48.416;8.512;2023-06-22T14:20:23;7.68;;;6.20;;
7903;SDS011;3997;48.416;8.512;2023-06-22T14:22:51;11.30;;;6.55;;
7903;SDS011;3997;48.416;8.512;2023-06-22T14:25:17;9.18;;;6.53;;
7903;SDS011;3997;48.416;8.512;2023-06-22T14:27:44;9.00;;;6.55;;
7903;SDS011;3997;48.416;8.512;2023-06-22T14:30:11;8.02;;;6.40;;
7903;SDS011;3997;48.416;8.512;2023-06-22T14:32:37;8.77;;;6.20;;
7903;SDS011;3997;48.416;8.512;2023-06-22T14:35:04;9.00;;;6.80;;
7903;SDS011;3997;48.416;8.512;2023-06-22T14:37:30;6.55;;;5.95;;
7903;SDS011;3997;48.416;8.512;2023-06-22T14:39:58;12.20;;;5.97;;
7903;SDS011;3997;48.416;8.512;2023-06-22T14:42:25;8.57;;;6.40;;
7903;SDS011;3997;48.416;8.512;2023-06-22T14:44:53;7.32;;;6.45;;
7903;SDS011;3997;48.416;8.512;2023-06-22T14:47:20;9.68;;;5.63;;
7903;SDS011;3997;48.416;8.512;2023-06-22T14:49:47;5.97;;;5.45;;
7903;SDS011;3997;48.416;8.512;2023-06-22T14:52:14;8.10;;;5.90;;
7903;SDS011;3997;48.416;8.512;2023-06-22T14:54:40;7.50;;;6.40;;
7903;SDS011;3997;48.416;8.512;2023-06-22T14:57:08;8.23;;;6.82;;
7903;SDS011;3997;48.416;8.512;2023-06-22T14:59:34;9.00;;;5.97;;
7903;SDS011;3997;48.416;8.512;2023-06-22T15:02:01;7.45;;;6.22;;
7903;SDS011;3997;48.416;8.512;2023-06-22T15:04:27;8.00;;;6.22;;
7903;SDS011;3997;48.416;8.512;2023-06-22T15:06:56;7.40;;;5.70;;